sensor_id;sensor_type;location;lat;lon;timestamp;pressure;altitude;pressure_sealevel;temperature;humidity
13029;BME280;6581;42.662;23.402;2023-06-05T00:01:30;95770.97;;;16.22;100.00
13029;BME280;6581;42.662;23.402;2023-06-05T00:04:00;95775.19;;;16.20;100.00
13029;BME280;6581;42.662;23.402;2023-06-05T00:06:27;95776.31;;;16.19;100.00
13029;BME280;6581;42.662;23.402;2023-06-05T00:08:55;95782.06;;;16.21;100.00
13029;BME280;6581;42.662;23.402;2023-06-05T00:11:22;95777.47;;;16.25;100.00
13029;BME280;6581;42.662;23.402;2023-06-05T00:13:50;95784.75;;;16.31;100.00
13029;BME280;6581;42.662;23.402;2023-06-05T00:16:18;95786.66;;;16.34;100.00
13029;BME280;6581;42.662;23.402;2023-06-05T00:18:45;95785.13;;;16.40;100.00
13029;BME280;6581;42.662;23.402;2023-06-05T00:21:12;95787.41;;;16.49;100.00
13029;BME280;6581;42.662;23.402;2023-06-05T00:23:41;95784.75;;;16.49;100.00
13029;BME280;6581;42.662;23.402;2023-06-05T00:26:10;95788.16;;;16.53;100.00
13029;BME280;6581;42.662;23.402;2023-06-05T00:28:37;95791.59;;;16.57;100.00
13029;BME280;6581;42.662;23.402;2023-06-05T00:31:05;95789.72;;;16.65;100.00
13029;BME280;6581;42.662;23.402;2023-06-05T00:33:33;95785.88;;;16.66;100.00
13029;BME280;6581;42.662;23.402;2023-06-05T00:35:59;95788.56;;;16.66;100.00
13029;BME280;6581;42.662;23.402;2023-06-05T00:38:26;95787.41;;;16.70;100.00
13029;BME280;6581;42.662;23.402;2023-06-05T00:40:54;95791.25;;;16.62;100.00
13029;BME280;6581;42.662;23.402;2023-06-05T00:43:22;95790.50;;;16.58;100.00
13029;BME280;6581;42.662;23.402;2023-06-05T00:45:50;95774.03;;;16.56;100.00
13029;BME280;6581;42.662;23.402;2023-06-05T00:48:22;95777.84;;;16.55;100.00
13029;BME280;6581;42.662;23.402;2023-06-05T00:50:50;95781.28;;;16.52;100.00
13029;BME280;6581;42.662;23.402;2023-06-05T00:53:17;95774.03;;;16.46;100.00
13029;BME280;6581;42.662;23.402;2023-06-05T00:55:44;95767.94;;;16.45;100.00
13029;BME280;6581;42.662;23.402;2023-06-05T00:58:12;95762.59;;;16.34;100.00
13029;BME280;6581;42.662;23.402;2023-06-05T01:00:42;95756.84;;;16.25;100.00
13029;BME280;6581;42.662;23.402;2023-06-05T01:03:09;95752.66;;;16.21;100.00
13029;BME280;6581;42.662;23.402;2023-06-05T01:05:37;95754.53;;;16.13;100.00
13029;BME280;6581;42.662;23.402;2023-06-05T01:08:04;95755.72;;;16.12;100.00
13029;BME280;6581;42.662;23.402;2023-06-05T01:10:35;95753.03;;;16.12;100.00
13029;BME280;6581;42.662;23.402;2023-06-05T01:13:06;95762.94;;;16.05;100.00
13029;BME280;6581;42.662;23.402;2023-06-05T01:15:35;95763.34;;;16.10;100.00
13029;BME280;6581;42.662;23.402;2023-06-05T01:18:09;95756.84;;;16.08;100.00
13029;BME280;6581;42.662;23.402;2023-06-05T01:20:38;95757.63;;;16.08;100.00
13029;BME280;6581;42.662;23.402;2023-06-05T01:23:07;95760.28;;;16.08;100.00
13029;BME280;6581;42.662;23.402;2023-06-05T01:25:35;95759.13;;;16.02;100.00
13029;BME280;6581;42.662;23.402;2023-06-05T01:28:17;95748.03;;;15.96;100.00
13029;BME280;6581;42.662;23.402;2023-06-05T01:30:51;95751.50;;;15.90;100.00
13029;BME280;6581;42.662;23.402;2023-06-05T01:33:31;95747.28;;;15.92;100.00
13029;BME280;6581;42.662;23.402;2023-06-05T01:36:02;95754.16;;;15.93;100.00
13029;BME280;6581;42.662;23.402;2023-06-05T01:38:33;95751.09;;;15.91;100.00
13029;BME280;6581;42.662;23.402;2023-06-05T01:41:02;95745.38;;;15.89;100.00
13029;BME280;6581;42.662;23.402;2023-06-05T01:43:30;95744.63;;;15.89;100.00
13029;BME280;6581;42.662;23.402;2023-06-05T01:45:58;95741.94;;;15.89;100.00
13029;BME280;6581;42.662;23.402;2023-06-05T01:48:26;95743.06;;;15.88;100.00
13029;BME280;6581;42.662;23.402;2023-06-05T01:50:55;95735.06;;;15.81;100.00
13029;BME280;6581;42.662;23.402;2023-06-05T01:53:22;95732.38;;;15.77;100.00
13029;BME280;6581;42.662;23.402;2023-06-05T01:55:51;95732.75;;;15.76;100.00
13029;BME280;6581;42.662;23.402;2023-06-05T01:58:22;95735.41;;;15.72;100.00
13029;BME280;6581;42.662;23.402;2023-06-05T02:00:50;95734.63;;;15.65;100.00
13029;BME280;6581;42.662;23.402;2023-06-05T02:03:18;95739.22;;;15.64;100.00
13029;BME280;6581;42.662;23.402;2023-06-05T02:05:46;95736.53;;;15.61;100.00
13029;BME280;6581;42.662;23.402;2023-06-05T02:08:13;95740.34;;;15.63;100.00
13029;BME280;6581;42.662;23.402;2023-06-05T02:10:45;95729.66;;;15.60;100.00
13029;BME280;6581;42.662;23.402;2023-06-05T02:13:14;95732.34;;;15.56;100.00
13029;BME280;6581;42.662;23.402;2023-06-05T02:15:42;95734.59;;;15.54;100.00
13029;BME280;6581;42.662;23.402;2023-06-05T02:18:11;95736.47;;;15.50;100.00
13029;BME280;6581;42.662;23.402;2023-06-05T02:20:40;95734.94;;;15.45;100.00
13029;BME280;6581;42.662;23.402;2023-06-05T02:23:09;95734.94;;;15.45;100.00
13029;BME280;6581;42.662;23.402;2023-06-05T02:25:36;95732.66;;;15.47;100.00
13029;BME280;6581;42.662;23.402;2023-06-05T02:28:03;95732.69;;;15.51;100.00
13029;BME280;6581;42.662;23.402;2023-06-05T02:30:32;95733.81;;;15.50;100.00
13029;BME280;6581;42.662;23.402;2023-06-05T02:32:59;95735.72;;;15.49;100.00
13029;BME280;6581;42.662;23.402;2023-06-05T02:35:28;95731.53;;;15.48;100.00
13029;BME280;6581;42.662;23.402;2023-06-05T02:37:55;95742.22;;;15.48;100.00
13029;BME280;6581;42.662;23.402;2023-06-05T02:40:23;95746.38;;;15.49;100.00
13029;BME280;6581;42.662;23.402;2023-06-05T02:42:50;95739.91;;;15.43;100.00
13029;BME280;6581;42.662;23.402;2023-06-05T02:45:17;95738.00;;;15.44;100.00
13029;BME280;6581;42.662;23.402;2023-06-05T02:47:46;95733.41;;;15.37;100.00
13029;BME280;6581;42.662;23.402;2023-06-05T02:50:13;95742.16;;;15.38;100.00
13029;BME280;6581;42.662;23.402;2023-06-05T02:52:45;95733.03;;;15.42;100.00
13029;BME280;6581;42.662;23.402;2023-06-05T02:55:17;95743.72;;;15.39;100.00
13029;BME280;6581;42.662;23.402;2023-06-05T02:57:46;95749.78;;;15.36;100.00
13029;BME280;6581;42.662;23.402;2023-06-05T03:00:18;95748.66;;;15.40;100.00
13029;BME280;6581;42.662;23.402;2023-06-05T03:02:52;95744.47;;;15.43;100.00
13029;BME280;6581;42.662;23.402;2023-06-05T03:05:24;95737.59;;;15.45;100.00
13029;BME280;6581;42.662;23.402;2023-06-05T03:07:57;95738.78;;;15.48;100.00
13029;BME280;6581;42.662;23.402;2023-06-05T03:10:27;95740.72;;;15.51;100.00
13029;BME280;6581;42.662;23.402;2023-06-05T03:12:54;95742.94;;;15.45;100.00
13029;BME280;6581;42.662;23.402;2023-06-05T03:15:23;95752.09;;;15.44;100.00
13029;BME280;6581;42.662;23.402;2023-06-05T03:17:52;95747.16;;;15.43;100.00
13029;BME280;6581;42.662;23.402;2023-06-05T03:20:21;95750.22;;;15.48;100.00
13029;BME280;6581;42.662;23.402;2023-06-05T03:22:49;95747.59;;;15.52;100.00
13029;BME280;6581;42.662;23.402;2023-06-05T03:25:16;95752.94;;;15.56;100.00
13029;BME280;6581;42.662;23.402;2023-06-05T03:27:44;95759.81;;;15.60;100.00
13029;BME280;6581;42.662;23.402;2023-06-05T03:30:12;95759.03;;;15.63;100.00
13029;BME280;6581;42.662;23.402;2023-06-05T03:32:45;95757.53;;;15.73;100.00
13029;BME280;6581;42.662;23.402;2023-06-05T03:35:14;95756.81;;;15.79;100.00
13029;BME280;6581;42.662;23.402;2023-06-05T03:37:43;95760.63;;;15.85;100.00
13029;BME280;6581;42.662;23.402;2023-06-05T03:40:11;95758.38;;;15.94;100.00
13029;BME280;6581;42.662;23.402;2023-06-05T03:42:39;95765.25;;;15.99;100.00
13029;BME280;6581;42.662;23.402;2023-06-05T03:45:07;95764.84;;;15.93;100.00
13029;BME280;6581;42.662;23.402;2023-06-05T03:47:36;95762.53;;;15.88;100.00
13029;BME280;6581;42.662;23.402;2023-06-05T03:50:06;95765.97;;;15.89;100.00
13029;BME280;6581;42.662;23.402;2023-06-05T03:52:38;95770.19;;;15.97;100.00
13029;BME280;6581;42.662;23.402;2023-06-05T03:55:06;95769.44;;;16.07;100.00
13029;BME280;6581;42.662;23.402;2023-06-05T03:57:35;95773.28;;;16.17;100.00
13029;BME280;6581;42.662;23.402;2023-06-05T04:00:05;95768.31;;;16.29;100.00
13029;BME280;6581;42.662;23.402;2023-06-05T04:02:39;95772.13;;;16.35;100.00
13029;BME280;6581;42.662;23.402;2023-06-05T04:05:08;95772.13;;;16.46;100.00
13029;BME280;6581;42.662;23.402;2023-06-05T04:07:39;95778.22;;;16.50;100.00
13029;BME280;6581;42.662;23.402;2023-06-05T04:10:08;95767.91;;;16.56;100.00
13029;BME280;6581;42.662;23.402;2023-06-05T04:12:36;95767.16;;;16.66;100.00
13029;BME280;6581;42.662;23.402;2023-06-05T04:15:06;95768.28;;;16.68;100.00
13029;BME280;6581;42.662;23.402;2023-06-05T04:17:35;95762.97;;;16.58;100.00
13029;BME280;6581;42.662;23.402;2023-06-05T04:20:04;95772.53;;;16.62;100.00
13029;BME280;6581;42.662;23.402;2023-06-05T04:22:34;95780.53;;;16.66;100.00
13029;BME280;6581;42.662;23.402;2023-06-05T04:25:03;95771.72;;;16.79;100.00
13029;BME280;6581;42.662;23.402;2023-06-05T04:27:31;95781.25;;;16.95;100.00
13029;BME280;6581;42.662;23.402;2023-06-05T04:29:58;95775.53;;;16.93;100.00
13029;BME280;6581;42.662;23.402;2023-06-05T04:32:25;95780.47;;;17.01;100.00
13029;BME280;6581;42.662;23.402;2023-06-05T04:34:52;95782.78;;;16.99;100.00
13029;BME280;6581;42.662;23.402;2023-06-05T04:37:19;95782.03;;;16.95;100.00
13029;BME280;6581;42.662;23.402;2023-06-05T04:39:47;95778.53;;;17.12;100.00
13029;BME280;6581;42.662;23.402;2023-06-05T04:42:15;95781.53;;;17.32;100.00
13029;BME280;6581;42.662;23.402;2023-06-05T04:44:53;95772.28;;;17.54;100.00
13029;BME280;6581;42.662;23.402;2023-06-05T04:47:22;95768.78;;;17.64;100.00
13029;BME280;6581;42.662;23.402;2023-06-05T04:49:50;95769.16;;;17.66;100.00
13029;BME280;6581;42.662;23.402;2023-06-05T04:52:20;95771.84;;;17.66;100.00
13029;BME280;6581;42.662;23.402;2023-06-05T04:54:49;95771.44;;;17.71;100.00
13029;BME280;6581;42.662;23.402;2023-06-05T04:57:19;95778.94;;;17.98;100.00
13029;BME280;6581;42.662;23.402;2023-06-05T04:59:46;95777.78;;;17.99;100.00
13029;BME280;6581;42.662;23.402;2023-06-05T05:02:15;95775.59;;;17.80;100.00
13029;BME280;6581;42.662;23.402;2023-06-05T05:04:43;95773.88;;;18.10;100.00
13029;BME280;6581;42.662;23.402;2023-06-05T05:07:11;95777.50;;;18.38;100.00
13029;BME280;6581;42.662;23.402;2023-06-05T05:09:41;95780.47;;;18.47;100.00
13029;BME280;6581;42.662;23.402;2023-06-05T05:12:09;95778.56;;;18.47;100.00
13029;BME280;6581;42.662;23.402;2023-06-05T05:14:38;95776.38;;;18.35;100.00
13029;BME280;6581;42.662;23.402;2023-06-05T05:17:06;95770.22;;;17.83;100.00
13029;BME280;6581;42.662;23.402;2023-06-05T05:19:35;95779.34;;;17.96;100.00
13029;BME280;6581;42.662;23.402;2023-06-05T05:22:05;95770.84;;;18.01;100.00
13029;BME280;6581;42.662;23.402;2023-06-05T05:24:32;95773.13;;;18.10;100.00
13029;BME280;6581;42.662;23.402;2023-06-05T05:27:00;95771.28;;;18.00;100.00
13029;BME280;6581;42.662;23.402;2023-06-05T05:29:27;95765.66;;;17.77;100.00
13029;BME280;6581;42.662;23.402;2023-06-05T05:31:56;95764.19;;;17.68;100.00
13029;BME280;6581;42.662;23.402;2023-06-05T05:34:23;95767.56;;;17.80;100.00
13029;BME280;6581;42.662;23.402;2023-06-05T05:36:51;95767.97;;;17.75;100.00
13029;BME280;6581;42.662;23.402;2023-06-05T05:39:19;95769.47;;;17.83;100.00
13029;BME280;6581;42.662;23.402;2023-06-05T05:41:46;95770.81;;;18.12;100.00
13029;BME280;6581;42.662;23.402;2023-06-05T05:44:13;95771.00;;;18.35;100.00
13029;BME280;6581;42.662;23.402;2023-06-05T05:46:40;95763.25;;;18.48;100.00
13029;BME280;6581;42.662;23.402;2023-06-05T05:49:09;95764.94;;;18.76;100.00
13029;BME280;6581;42.662;23.402;2023-06-05T05:51:36;95764.16;;;18.75;100.00
13029;BME280;6581;42.662;23.402;2023-06-05T05:54:03;95764.88;;;18.83;100.00
13029;BME280;6581;42.662;23.402;2023-06-05T05:56:30;95757.38;;;18.64;100.00
13029;BME280;6581;42.662;23.402;2023-06-05T05:58:59;95762.88;;;18.46;100.00
13029;BME280;6581;42.662;23.402;2023-06-05T06:01:27;95753.72;;;18.40;100.00
13029;BME280;6581;42.662;23.402;2023-06-05T06:03:54;95756.31;;;18.54;100.00
13029;BME280;6581;42.662;23.402;2023-06-05T06:06:23;95753.56;;;18.61;100.00
13029;BME280;6581;42.662;23.402;2023-06-05T06:08:51;95758.22;;;18.57;100.00
13029;BME280;6581;42.662;23.402;2023-06-05T06:11:18;95755.78;;;18.73;100.00
13029;BME280;6581;42.662;23.402;2023-06-05T06:13:45;95761.13;;;18.73;100.00
13029;BME280;6581;42.662;23.402;2023-06-05T06:16:13;95758.28;;;18.91;100.00
13029;BME280;6581;42.662;23.402;2023-06-05T06:18:40;95763.25;;;18.92;100.00
13029;BME280;6581;42.662;23.402;2023-06-05T06:21:07;95760.19;;;18.90;100.00
13029;BME280;6581;42.662;23.402;2023-06-05T06:23:35;95760.09;;;18.97;100.00
13029;BME280;6581;42.662;23.402;2023-06-05T06:26:02;95767.09;;;19.25;100.00
13029;BME280;6581;42.662;23.402;2023-06-05T06:28:32;95755.31;;;19.16;100.00
13029;BME280;6581;42.662;23.402;2023-06-05T06:30:59;95766.03;;;19.19;100.00
13029;BME280;6581;42.662;23.402;2023-06-05T06:33:26;95762.25;;;19.13;100.00
13029;BME280;6581;42.662;23.402;2023-06-05T06:35:54;95754.19;;;19.13;100.00
13029;BME280;6581;42.662;23.402;2023-06-05T06:38:24;95758.84;;;19.43;100.00
13029;BME280;6581;42.662;23.402;2023-06-05T06:40:57;95747.63;;;19.52;100.00
13029;BME280;6581;42.662;23.402;2023-06-05T06:43:24;95754.19;;;19.77;100.00
13029;BME280;6581;42.662;23.402;2023-06-05T06:46:00;95757.66;;;19.78;100.00
13029;BME280;6581;42.662;23.402;2023-06-05T06:48:27;95753.53;;;19.70;100.00
13029;BME280;6581;42.662;23.402;2023-06-05T06:50:53;95758.06;;;19.46;100.00
13029;BME280;6581;42.662;23.402;2023-06-05T06:53:21;95744.22;;;19.78;100.00
13029;BME280;6581;42.662;23.402;2023-06-05T06:55:48;95744.34;;;19.94;99.51
13029;BME280;6581;42.662;23.402;2023-06-05T06:58:16;95756.84;;;19.81;98.19
13029;BME280;6581;42.662;23.402;2023-06-05T07:00:43;95744.88;;;19.85;98.77
13029;BME280;6581;42.662;23.402;2023-06-05T07:03:11;95746.66;;;19.96;98.21
13029;BME280;6581;42.662;23.402;2023-06-05T07:05:38;95747.88;;;20.64;95.66
13029;BME280;6581;42.662;23.402;2023-06-05T07:08:06;95747.13;;;21.66;90.72
13029;BME280;6581;42.662;23.402;2023-06-05T07:10:33;95750.75;;;22.60;82.69
13029;BME280;6581;42.662;23.402;2023-06-05T07:13:00;95750.72;;;22.92;78.35
13029;BME280;6581;42.662;23.402;2023-06-05T07:15:29;95749.47;;;24.05;71.27
13029;BME280;6581;42.662;23.402;2023-06-05T07:17:55;95748.34;;;25.00;68.50
13029;BME280;6581;42.662;23.402;2023-06-05T07:20:23;95748.75;;;25.33;63.95
13029;BME280;6581;42.662;23.402;2023-06-05T07:22:50;95754.22;;;23.89;71.47
13029;BME280;6581;42.662;23.402;2023-06-05T07:25:17;95756.38;;;24.06;70.39
13029;BME280;6581;42.662;23.402;2023-06-05T07:27:46;95748.06;;;24.13;68.85
13029;BME280;6581;42.662;23.402;2023-06-05T07:30:13;95746.09;;;23.89;70.05
13029;BME280;6581;42.662;23.402;2023-06-05T07:32:42;95751.53;;;24.01;69.99
13029;BME280;6581;42.662;23.402;2023-06-05T07:35:10;95750.44;;;24.37;70.58
13029;BME280;6581;42.662;23.402;2023-06-05T07:37:39;95761.97;;;25.09;64.34
13029;BME280;6581;42.662;23.402;2023-06-05T07:40:08;95763.03;;;24.90;63.53
13029;BME280;6581;42.662;23.402;2023-06-05T07:42:35;95758.22;;;25.29;62.14
13029;BME280;6581;42.662;23.402;2023-06-05T07:45:03;95763.63;;;25.72;60.91
13029;BME280;6581;42.662;23.402;2023-06-05T07:47:31;95771.28;;;25.95;57.39
13029;BME280;6581;42.662;23.402;2023-06-05T07:50:00;95772.69;;;25.35;59.89
13029;BME280;6581;42.662;23.402;2023-06-05T07:52:30;95772.41;;;26.47;58.16
13029;BME280;6581;42.662;23.402;2023-06-05T07:54:57;95762.84;;;26.92;55.82
13029;BME280;6581;42.662;23.402;2023-06-05T07:57:24;95766.28;;;27.47;50.30
13029;BME280;6581;42.662;23.402;2023-06-05T07:59:51;95771.16;;;26.97;52.58
13029;BME280;6581;42.662;23.402;2023-06-05T08:02:19;95753.56;;;27.71;51.63
13029;BME280;6581;42.662;23.402;2023-06-05T08:04:46;95755.00;;;28.41;46.58
13029;BME280;6581;42.662;23.402;2023-06-05T08:07:15;95758.88;;;27.47;48.59
13029;BME280;6581;42.662;23.402;2023-06-05T08:09:42;95757.94;;;27.77;50.04
13029;BME280;6581;42.662;23.402;2023-06-05T08:12:09;95763.59;;;27.01;50.10
13029;BME280;6581;42.662;23.402;2023-06-05T08:14:37;95765.41;;;27.41;52.43
13029;BME280;6581;42.662;23.402;2023-06-05T08:17:04;95763.41;;;26.77;53.01
13029;BME280;6581;42.662;23.402;2023-06-05T08:19:32;95768.03;;;25.79;57.40
13029;BME280;6581;42.662;23.402;2023-06-05T08:21:59;95775.72;;;26.11;55.29
13029;BME280;6581;42.662;23.402;2023-06-05T08:24:28;95767.88;;;26.13;57.00
13029;BME280;6581;42.662;23.402;2023-06-05T08:26:55;95769.22;;;25.12;59.74
13029;BME280;6581;42.662;23.402;2023-06-05T08:29:22;95762.91;;;24.94;60.40
13029;BME280;6581;42.662;23.402;2023-06-05T08:31:50;95764.06;;;24.08;64.75
13029;BME280;6581;42.662;23.402;2023-06-05T08:34:17;95764.81;;;23.70;65.85
13029;BME280;6581;42.662;23.402;2023-06-05T08:36:44;95769.34;;;23.61;64.72
13029;BME280;6581;42.662;23.402;2023-06-05T08:39:11;95771.91;;;23.52;68.03
13029;BME280;6581;42.662;23.402;2023-06-05T08:41:42;95771.34;;;23.15;72.15
13029;BME280;6581;42.662;23.402;2023-06-05T08:44:11;95772.69;;;23.23;68.16
13029;BME280;6581;42.662;23.402;2023-06-05T08:46:39;95775.47;;;23.20;71.70
13029;BME280;6581;42.662;23.402;2023-06-05T08:49:10;95768.69;;;22.99;70.86
13029;BME280;6581;42.662;23.402;2023-06-05T08:51:38;95776.84;;;23.12;70.15
13029;BME280;6581;42.662;23.402;2023-06-05T08:54:08;95769.88;;;23.27;70.64
13029;BME280;6581;42.662;23.402;2023-06-05T08:56:41;95767.97;;;23.40;69.46
13029;BME280;6581;42.662;23.402;2023-06-05T08:59:08;95768.25;;;23.58;69.03
13029;BME280;6581;42.662;23.402;2023-06-05T09:01:40;95761.97;;;23.49;68.06
13029;BME280;6581;42.662;23.402;2023-06-05T09:06:34;95767.47;;;23.45;63.87
13029;BME280;6581;42.662;23.402;2023-06-05T09:09:02;95763.38;;;23.24;67.35
13029;BME280;6581;42.662;23.402;2023-06-05T09:11:30;95758.84;;;23.34;65.08
13029;BME280;6581;42.662;23.402;2023-06-05T09:14:00;95768.88;;;23.50;63.38
13029;BME280;6581;42.662;23.402;2023-06-05T09:16:41;95775.56;;;23.16;64.37
13029;BME280;6581;42.662;23.402;2023-06-05T09:19:09;95770.84;;;22.75;66.23
13029;BME280;6581;42.662;23.402;2023-06-05T09:21:37;95774.81;;;22.54;66.73
13029;BME280;6581;42.662;23.402;2023-06-05T09:24:14;95774.66;;;22.45;68.09
13029;BME280;6581;42.662;23.402;2023-06-05T09:26:46;95772.19;;;22.35;67.81
13029;BME280;6581;42.662;23.402;2023-06-05T09:29:19;95771.06;;;22.65;68.56
13029;BME280;6581;42.662;23.402;2023-06-05T09:31:47;95768.81;;;22.47;67.89
13029;BME280;6581;42.662;23.402;2023-06-05T09:34:21;95771.75;;;22.52;67.17
13029;BME280;6581;42.662;23.402;2023-06-05T09:36:48;95766.19;;;22.76;66.85
13029;BME280;6581;42.662;23.402;2023-06-05T09:39:16;95766.00;;;22.99;65.77
13029;BME280;6581;42.662;23.402;2023-06-05T09:41:44;95766.84;;;22.96;64.56
13029;BME280;6581;42.662;23.402;2023-06-05T09:44:12;95770.22;;;22.84;66.56
13029;BME280;6581;42.662;23.402;2023-06-05T09:46:55;95772.63;;;23.11;65.85
13029;BME280;6581;42.662;23.402;2023-06-05T09:49:25;95772.28;;;23.37;65.10
13029;BME280;6581;42.662;23.402;2023-06-05T09:51:55;95775.47;;;23.49;65.61
13029;BME280;6581;42.662;23.402;2023-06-05T09:54:22;95776.59;;;23.64;65.09
13029;BME280;6581;42.662;23.402;2023-06-05T09:56:56;95763.97;;;23.73;66.06
13029;BME280;6581;42.662;23.402;2023-06-05T09:59:27;95769.56;;;23.79;66.47
13029;BME280;6581;42.662;23.402;2023-06-05T10:02:00;95765.50;;;23.87;65.28
13029;BME280;6581;42.662;23.402;2023-06-05T10:04:28;95764.28;;;23.88;64.77
13029;BME280;6581;42.662;23.402;2023-06-05T10:07:00;95760.09;;;24.00;64.82
13029;BME280;6581;42.662;23.402;2023-06-05T10:09:29;95760.97;;;23.97;64.23
13029;BME280;6581;42.662;23.402;2023-06-05T10:11:57;95754.56;;;24.16;63.19
13029;BME280;6581;42.662;23.402;2023-06-05T10:14:25;95750.47;;;24.24;62.59
13029;BME280;6581;42.662;23.402;2023-06-05T10:16:52;95752.50;;;24.20;63.63
13029;BME280;6581;42.662;23.402;2023-06-05T10:19:22;95756.53;;;24.28;64.68
13029;BME280;6581;42.662;23.402;2023-06-05T10:21:50;95751.28;;;24.59;63.03
13029;BME280;6581;42.662;23.402;2023-06-05T10:24:20;95753.59;;;24.35;63.78
13029;BME280;6581;42.662;23.402;2023-06-05T10:27:10;95752.56;;;24.67;63.21
13029;BME280;6581;42.662;23.402;2023-06-05T10:30:00;95752.00;;;24.72;63.07
13029;BME280;6581;42.662;23.402;2023-06-05T10:32:40;95749.69;;;24.83;58.83
13029;BME280;6581;42.662;23.402;2023-06-05T10:35:20;95745.25;;;24.77;60.02
13029;BME280;6581;42.662;23.402;2023-06-05T10:38:03;95745.91;;;24.81;59.03
13029;BME280;6581;42.662;23.402;2023-06-05T10:40:37;95743.44;;;24.73;57.89
13029;BME280;6581;42.662;23.402;2023-06-05T10:43:24;95739.28;;;24.82;57.36
13029;BME280;6581;42.662;23.402;2023-06-05T10:45:52;95750.75;;;24.86;58.44
13029;BME280;6581;42.662;23.402;2023-06-05T10:48:19;95742.69;;;24.73;59.22
13029;BME280;6581;42.662;23.402;2023-06-05T10:50:47;95728.13;;;24.07;63.54
13029;BME280;6581;42.662;23.402;2023-06-05T10:53:44;95730.09;;;23.81;68.01
13029;BME280;6581;42.662;23.402;2023-06-05T10:56:53;95721.97;;;23.94;72.39
13029;BME280;6581;42.662;23.402;2023-06-05T10:59:22;95723.91;;;22.85;72.02
13029;BME280;6581;42.662;23.402;2023-06-05T11:02:23;95717.88;;;22.49;75.63
13029;BME280;6581;42.662;23.402;2023-06-05T11:05:18;95717.50;;;22.63;75.90
13029;BME280;6581;42.662;23.402;2023-06-05T11:07:47;95717.63;;;22.88;78.93
13029;BME280;6581;42.662;23.402;2023-06-05T11:10:20;95716.13;;;22.87;82.09
13029;BME280;6581;42.662;23.402;2023-06-05T11:12:58;95711.91;;;22.86;83.49
13029;BME280;6581;42.662;23.402;2023-06-05T11:18:32;95709.22;;;22.86;82.17
13029;BME280;6581;42.662;23.402;2023-06-05T11:21:00;95706.28;;;22.81;83.04
13029;BME280;6581;42.662;23.402;2023-06-05T11:23:29;95707.63;;;22.57;81.91
13029;BME280;6581;42.662;23.402;2023-06-05T11:25:58;95709.91;;;22.74;80.99
13029;BME280;6581;42.662;23.402;2023-06-05T11:28:44;95707.25;;;23.16;80.74
13029;BME280;6581;42.662;23.402;2023-06-05T11:31:12;95697.97;;;23.29;78.48
13029;BME280;6581;42.662;23.402;2023-06-05T11:33:39;95701.97;;;23.25;75.80
13029;BME280;6581;42.662;23.402;2023-06-05T11:36:07;95696.44;;;23.57;76.13
13029;BME280;6581;42.662;23.402;2023-06-05T11:38:35;95691.78;;;23.96;76.39
13029;BME280;6581;42.662;23.402;2023-06-05T11:41:06;95696.94;;;24.41;74.60
13029;BME280;6581;42.662;23.402;2023-06-05T11:43:45;95687.78;;;24.60;73.98
13029;BME280;6581;42.662;23.402;2023-06-05T11:46:13;95686.16;;;24.97;75.05
13029;BME280;6581;42.662;23.402;2023-06-05T11:48:43;95680.34;;;25.07;75.19
13029;BME280;6581;42.662;23.402;2023-06-05T11:51:11;95679.00;;;25.34;70.27
13029;BME280;6581;42.662;23.402;2023-06-05T11:53:45;95687.66;;;25.72;67.29
13029;BME280;6581;42.662;23.402;2023-06-05T11:56:14;95676.50;;;26.19;62.96
13029;BME280;6581;42.662;23.402;2023-06-05T11:58:42;95678.69;;;26.61;57.93
13029;BME280;6581;42.662;23.402;2023-06-05T12:01:13;95669.94;;;26.84;56.11
13029;BME280;6581;42.662;23.402;2023-06-05T12:03:44;95671.28;;;27.25;53.70
13029;BME280;6581;42.662;23.402;2023-06-05T12:06:12;95675.16;;;27.51;55.49
13029;BME280;6581;42.662;23.402;2023-06-05T12:08:40;95678.09;;;27.81;50.86
13029;BME280;6581;42.662;23.402;2023-06-05T12:11:23;95670.84;;;27.68;47.70
13029;BME280;6581;42.662;23.402;2023-06-05T12:13:53;95665.78;;;27.52;47.69
13029;BME280;6581;42.662;23.402;2023-06-05T12:16:29;95674.03;;;26.88;47.77
13029;BME280;6581;42.662;23.402;2023-06-05T12:18:57;95660.00;;;26.81;50.13
13029;BME280;6581;42.662;23.402;2023-06-05T12:21:25;95666.75;;;27.22;50.47
13029;BME280;6581;42.662;23.402;2023-06-05T12:24:01;95660.72;;;27.09;47.96
13029;BME280;6581;42.662;23.402;2023-06-05T12:26:29;95651.97;;;26.77;50.71
13029;BME280;6581;42.662;23.402;2023-06-05T12:29:05;95655.59;;;26.74;49.02
13029;BME280;6581;42.662;23.402;2023-06-05T12:31:33;95651.38;;;26.73;47.99
13029;BME280;6581;42.662;23.402;2023-06-05T12:34:02;95646.56;;;26.86;46.87
13029;BME280;6581;42.662;23.402;2023-06-05T12:36:31;95643.84;;;26.86;48.36
13029;BME280;6581;42.662;23.402;2023-06-05T12:39:02;95634.78;;;26.80;49.67
13029;BME280;6581;42.662;23.402;2023-06-05T12:41:33;95628.28;;;26.60;50.11
13029;BME280;6581;42.662;23.402;2023-06-05T12:44:01;95624.19;;;26.55;51.25
13029;BME280;6581;42.662;23.402;2023-06-05T12:46:30;95626.31;;;26.60;49.98
13029;BME280;6581;42.662;23.402;2023-06-05T12:48:57;95623.28;;;26.58;48.94
13029;BME280;6581;42.662;23.402;2023-06-05T12:51:25;95620.28;;;26.56;49.61
13029;BME280;6581;42.662;23.402;2023-06-05T12:53:53;95616.19;;;26.70;48.67
13029;BME280;6581;42.662;23.402;2023-06-05T12:56:20;95612.25;;;27.07;48.41
13029;BME280;6581;42.662;23.402;2023-06-05T12:58:53;95610.50;;;27.28;47.82
13029;BME280;6581;42.662;23.402;2023-06-05T13:01:21;95616.91;;;27.16;47.78
13029;BME280;6581;42.662;23.402;2023-06-05T13:03:49;95616.63;;;27.05;47.56
13029;BME280;6581;42.662;23.402;2023-06-05T13:06:16;95616.81;;;26.92;48.94
13029;BME280;6581;42.662;23.402;2023-06-05T13:08:43;95610.78;;;26.88;49.83
13029;BME280;6581;42.662;23.402;2023-06-05T13:11:12;95613.31;;;26.82;50.17
13029;BME280;6581;42.662;23.402;2023-06-05T13:13:39;95613.31;;;26.73;50.79